Cmb Sakura — 3EGO3 — position and weather

sailwx.info

Track history (hours):
 
Tides and Currents Weather Stations Pressure Air Temp Water Temp Dewpoint Dewpoint Depression Visibility Wind Speed Wind Dir Waves Ship Positions

Cmb Sakura

Last reported at 2015-Jul-15 06:26 UTC. Time now 2015-Aug-03 21:19 UTC.
Position N 36°28' E 122°43'.
Warning: this ship's position is 19 days out of date.

Length 225 m; draft 5.7 m.

Type: Cargo ship. MMSI: 371784000.

Date/timePositionNaut miles runAvg speedWind from/ knotsBaromVisibWave heightAir tempDewpointWater temp
2015-Jul-15 06:26N 36°28' E 122°43'1411.8
2015-Jul-15 05:15N 36°41' E 122°36'811.6
2015-Jul-15 04:33N 36°48' E 122°31'7 6.6
2015-Jul-15 03:33N 36°53' E 122°26'0 0.1
2015-Jul-15 02:23N 36°53' E 122°26'0 0.0
2015-Jul-15 01:28N 36°53' E 122°26'0 0.0
2015-Jul-15 00:16N 36°53' E 122°26'0 0.0
2015-Jul-14 23:28N 36°53' E 122°26'0 0.0
2015-Jul-14 22:28N 36°53' E 122°26'0 0.0
2015-Jul-14 21:28N 36°53' E 122°26'0 0.0
2015-Jul-14 20:28N 36°53' E 122°26'0 0.0
2015-Jul-14 03:10N 36°53' E 122°26'0 0.0
2015-Jul-14 02:28N 36°53' E 122°26'0 0.0
2015-Jul-14 01:22N 36°53' E 122°26'0 0.0
2015-Jul-14 00:29N 36°53' E 122°26'0 0.0
2015-Jul-13 23:10N 36°53' E 122°26'0 0.0
2015-Jul-13 22:29N 36°53' E 122°26'0 0.0
2015-Jul-13 21:29N 36°53' E 122°26'0 0.0
2015-Jul-13 17:29N 36°53' E 122°26'0 0.0
2015-Jul-13 16:22N 36°53' E 122°26'0 0.0
2015-Jul-13 15:22N 36°53' E 122°26'0 0.0
2015-Jul-13 14:28N 36°53' E 122°26'0 0.0
2015-Jul-13 13:28N 36°53' E 122°26'0 0.0
2015-Jul-13 12:28N 36°53' E 122°26'0 0.0
2015-Jul-13 11:28N 36°53' E 122°26'0 0.0
2015-Jul-13 10:28N 36°53' E 122°26'0 0.0
2015-Jul-13 09:26N 36°53' E 122°26'2 2.3
2015-Jul-13 08:33N 36°52' E 122°29'7 6.7
2015-Jul-13 07:33N 36°49' E 122°36'2 1.9
2015-Jul-13 06:33N 36°48' E 122°34'1 1.4
2015-Jul-13 05:33N 36°48' E 122°32'1 0.8
2015-Jul-13 04:33N 36°48' E 122°31'0 0.5
2015-Jul-13 03:33N 36°48' E 122°30'0 0.4
2015-Jul-13 02:33N 36°48' E 122°31'5 5.1
2015-Jul-13 01:33N 36°43' E 122°30'1 0.0
2015-Jul-11 10:32N 36°42' E 122°29'7 7.1
2015-Jul-11 09:32N 36°49' E 122°30'5 5.2
2015-Jul-11 08:33N 36°53' E 122°26'0 0.1
2015-Jul-11 07:31N 36°53' E 122°26'0 0.0
2015-Jul-11 05:31N 36°53' E 122°26'0 0.0
2015-Jul-11 04:25N 36°53' E 122°26'0 0.0
2015-Jul-11 03:31N 36°53' E 122°26'0 0.0
2015-Jul-11 02:31N 36°53' E 122°26'0 0.0
2015-Jul-11 01:25N 36°53' E 122°26'0 0.0
2015-Jul-11 00:31N 36°53' E 122°26'0 0.0
2015-Jul-10 23:31N 36°53' E 122°26'0 0.0
2015-Jul-10 22:25N 36°53' E 122°26'0 0.0
2015-Jul-10 21:31N 36°53' E 122°26'0 0.0
2015-Jul-10 20:31N 36°53' E 122°26'0 0.0
2015-Jul-10 19:31N 36°53' E 122°26'0 0.0
2015-Jul-10 18:31N 36°53' E 122°26'0 0.0
2015-Jul-10 17:25N 36°53' E 122°26'0 0.0
2015-Jul-10 16:31N 36°53' E 122°26'0 0.0
2015-Jul-10 15:31N 36°53' E 122°26'0 0.0
2015-Jul-10 14:31N 36°53' E 122°26'0 0.0
2015-Jul-10 13:31N 36°53' E 122°26'0 0.0
2015-Jul-10 12:31N 36°53' E 122°26'0 0.0
2015-Jul-10 11:31N 36°53' E 122°26'0 0.0
2015-Jul-10 10:31N 36°53' E 122°26'0 0.0
2015-Jul-10 09:31N 36°53' E 122°26'0 0.0
2015-Jul-10 08:25N 36°53' E 122°26'0 0.0
2015-Jul-10 07:31N 36°53' E 122°26'0 0.0
2015-Jul-10 06:31N 36°53' E 122°26'0 0.0
2015-Jul-10 05:31N 36°53' E 122°26'0 0.0
2015-Jul-10 04:31N 36°53' E 122°26'0 0.0
2015-Jul-10 03:31N 36°53' E 122°26'0 0.0
2015-Jul-10 02:31N 36°53' E 122°26'0 0.0
2015-Jul-10 01:25N 36°53' E 122°26'0 0.0
2015-Jul-10 00:31N 36°53' E 122°26'0 0.0
2015-Jul-09 23:31N 36°53' E 122°26'0 0.0
2015-Jul-09 22:13N 36°53' E 122°26'0 0.0
2015-Jul-09 21:31N 36°53' E 122°26'0 0.0
2015-Jul-09 20:31N 36°53' E 122°26'0 0.0
2015-Jul-09 19:31N 36°53' E 122°26'0 0.0
2015-Jul-09 18:31N 36°53' E 122°26'0 0.0
2015-Jul-09 17:31N 36°53' E 122°26'0 0.0
2015-Jul-09 16:31N 36°53' E 122°26'0 0.0
2015-Jul-09 15:31N 36°53' E 122°26'0 0.0
2015-Jul-09 14:31N 36°53' E 122°26'0 0.0
2015-Jul-09 13:25N 36°53' E 122°26'0 0.0
2015-Jul-09 12:25N 36°53' E 122°26'0 0.0
2015-Jul-09 11:25N 36°53' E 122°26'0 0.0
2015-Jul-09 10:31N 36°53' E 122°26'0 0.0
2015-Jul-09 09:31N 36°53' E 122°26'0 0.0
2015-Jul-09 08:31N 36°53' E 122°26'0 0.0
2015-Jul-09 07:25N 36°53' E 122°26'0 0.0
2015-Jul-09 06:31N 36°53' E 122°26'0 0.0
2015-Jul-09 05:25N 36°53' E 122°26'0 0.0
2015-Jul-09 04:31N 36°53' E 122°26'0 0.0
2015-Jul-09 03:31N 36°53' E 122°26'0 0.0
2015-Jul-09 02:31N 36°53' E 122°26'0 0.0
2015-Jul-09 01:25N 36°53' E 122°26'0 0.0
2015-Jul-09 00:31N 36°53' E 122°26'0 0.0
2015-Jul-08 23:31N 36°53' E 122°26'0 0.0
2015-Jul-08 22:31N 36°53' E 122°26'0 0.0
2015-Jul-08 21:31N 36°53' E 122°26'0 0.0
2015-Jul-08 20:19N 36°53' E 122°26'0 0.0
2015-Jul-08 19:31N 36°53' E 122°26'0 0.0
2015-Jul-08 18:31N 36°53' E 122°26'0 0.0
2015-Jul-08 17:31N 36°53' E 122°26'0 0.0
2015-Jul-08 16:25N 36°53' E 122°26'0 0.0
2015-Jul-08 15:31N 36°53' E 122°26'0 0.0
2015-Jul-08 14:31N 36°53' E 122°26'0 0.0
2015-Jul-08 13:25N 36°53' E 122°26'0 0.0
2015-Jul-08 12:31N 36°53' E 122°26'0 0.0
2015-Jul-08 11:31N 36°53' E 122°26'0 0.0
2015-Jul-08 10:31N 36°53' E 122°26'0 0.0
2015-Jul-08 09:31N 36°53' E 122°26'0 0.0
2015-Jul-08 08:31N 36°53' E 122°26'0 0.0
2015-Jul-08 07:19N 36°53' E 122°26'0 0.0
2015-Jul-08 06:25N 36°53' E 122°26'0 0.0
2015-Jul-08 05:31N 36°53' E 122°26'0 0.0
2015-Jul-08 04:31N 36°53' E 122°26'0 0.0
2015-Jul-08 03:31N 36°53' E 122°26'0 0.0
2015-Jul-08 02:25N 36°53' E 122°26'0 0.0
2015-Jul-08 01:25N 36°53' E 122°26'0 0.0
2015-Jul-08 00:31N 36°53' E 122°26'0 0.0
2015-Jul-07 23:31N 36°53' E 122°26'0 0.0
2015-Jul-07 22:25N 36°53' E 122°26'0 0.0
2015-Jul-07 21:25N 36°53' E 122°26'0 0.0
2015-Jul-07 20:31N 36°53' E 122°26'0 0.0
2015-Jul-07 16:13N 36°53' E 122°26'0 0.0
2015-Jul-07 15:31N 36°53' E 122°26'0 0.0
2015-Jul-07 14:31N 36°53' E 122°26'0 0.0
2015-Jul-07 13:31N 36°53' E 122°26'0 0.0
2015-Jul-07 12:31N 36°53' E 122°26'0 0.0
2015-Jul-07 11:25N 36°53' E 122°26'0 0.0
2015-Jul-07 10:19N 36°53' E 122°26'0 0.0
2015-Jul-07 09:31N 36°53' E 122°26'0 0.0
2015-Jul-07 08:31N 36°53' E 122°26'0 0.0
2015-Jul-07 07:13N 36°53' E 122°26'0 0.0
2015-Jul-07 06:13N 36°53' E 122°26'0 0.0
2015-Jul-07 05:31N 36°53' E 122°26'0 0.0
2015-Jul-07 04:19N 36°53' E 122°26'0 0.0
2015-Jul-07 03:31N 36°53' E 122°26'0 0.0
2015-Jul-07 02:25N 36°53' E 122°26'0 0.0
2015-Jul-07 01:19N 36°53' E 122°26'0 0.0
2015-Jul-07 00:25N 36°53' E 122°26'0 0.0
2015-Jul-06 23:13N 36°53' E 122°26'0 0.0
2015-Jul-06 18:07N 36°53' E 122°26'0 0.0
2015-Jul-06 17:31N 36°53' E 122°26'0 0.0
2015-Jul-06 16:19N 36°53' E 122°26'0 0.0
2015-Jul-06 15:31N 36°53' E 122°26'0 0.0
2015-Jul-06 14:25N 36°53' E 122°26'0 0.0
2015-Jul-06 13:25N 36°53' E 122°26'0 0.0
2015-Jul-06 12:31N 36°53' E 122°26'0 0.0
2015-Jul-06 11:31N 36°53' E 122°26'0 0.2
2015-Jul-06 10:31N 36°53' E 122°26'0 0.0
2015-Jul-06 09:31N 36°53' E 122°26'0 0.0
2015-Jul-06 08:31N 36°53' E 122°26'0 0.0
2015-Jul-06 07:32N 36°53' E 122°26'0 0.0
2015-Jul-06 06:31N 36°53' E 122°26'0 0.0
2015-Jul-06 05:31N 36°53' E 122°26'0 0.0
2015-Jul-06 04:31N 36°53' E 122°26'0 0.0
2015-Jul-06 03:31N 36°53' E 122°26'0 0.0
2015-Jul-06 02:31N 36°53' E 122°26'0 0.0
2015-Jul-06 01:31N 36°53' E 122°26'0 0.0
2015-Jul-06 00:31N 36°53' E 122°26'0 0.0
2015-Jul-05 23:31N 36°53' E 122°26'0 0.0
2015-Jul-05 22:31N 36°53' E 122°26'0 0.0
2015-Jul-05 21:31N 36°53' E 122°26'0 0.0
2015-Jul-05 20:31N 36°53' E 122°26'0 0.0
2015-Jul-05 19:25N 36°53' E 122°26'0 0.0
2015-Jul-05 18:31N 36°53' E 122°26'0 0.0
2015-Jul-05 17:19N 36°53' E 122°26'0 0.0
2015-Jul-05 16:07N 36°53' E 122°26'0 0.0
2015-Jul-05 15:31N 36°53' E 122°26'0 0.0
2015-Jul-05 14:31N 36°53' E 122°26'0 0.0
2015-Jul-05 13:25N 36°53' E 122°26'0 0.0
2015-Jul-05 12:31N 36°53' E 122°26'0 0.0
2015-Jul-05 11:31N 36°53' E 122°26'0 0.0
2015-Jul-05 10:19N 36°53' E 122°26'0 0.0
2015-Jul-05 09:25N 36°53' E 122°26'0 0.0
2015-Jul-05 08:31N 36°53' E 122°26'0 0.0
2015-Jul-05 07:31N 36°53' E 122°26'0 0.0
2015-Jul-05 06:31N 36°53' E 122°26'  
Track history (hours):
 
Tides and Currents Weather Stations Pressure Air Temp Water Temp Dewpoint Dewpoint Depression Visibility Wind Speed Wind Dir Waves Ship Positions

Cmb Sakura

Last reported at 2015-Jul-15 06:26 UTC. Time now 2015-Aug-03 21:19 UTC.
Position N 36°28' E 122°43'.
Warning: this ship's position is 19 days out of date.

Length 225 m; draft 5.7 m.

Type: Cargo ship. MMSI: 371784000.

Date/timePositionNaut miles runAvg speedWind from/ knotsBaromVisibWave heightAir tempDewpointWater temp
2015-Jul-15 06:26N 36°28' E 122°43'1411.8
2015-Jul-15 05:15N 36°41' E 122°36'811.6
2015-Jul-15 04:33N 36°48' E 122°31'7 6.6
2015-Jul-15 03:33N 36°53' E 122°26'0 0.1
2015-Jul-15 02:23N 36°53' E 122°26'0 0.0
2015-Jul-15 01:28N 36°53' E 122°26'0 0.0
2015-Jul-15 00:16N 36°53' E 122°26'0 0.0
2015-Jul-14 23:28N 36°53' E 122°26'0 0.0
2015-Jul-14 22:28N 36°53' E 122°26'0 0.0
2015-Jul-14 21:28N 36°53' E 122°26'0 0.0
2015-Jul-14 20:28N 36°53' E 122°26'0 0.0
2015-Jul-14 03:10N 36°53' E 122°26'0 0.0
2015-Jul-14 02:28N 36°53' E 122°26'0 0.0
2015-Jul-14 01:22N 36°53' E 122°26'0 0.0
2015-Jul-14 00:29N 36°53' E 122°26'0 0.0
2015-Jul-13 23:10N 36°53' E 122°26'0 0.0
2015-Jul-13 22:29N 36°53' E 122°26'0 0.0
2015-Jul-13 21:29N 36°53' E 122°26'0 0.0
2015-Jul-13 17:29N 36°53' E 122°26'0 0.0
2015-Jul-13 16:22N 36°53' E 122°26'0 0.0
2015-Jul-13 15:22N 36°53' E 122°26'0 0.0
2015-Jul-13 14:28N 36°53' E 122°26'0 0.0
2015-Jul-13 13:28N 36°53' E 122°26'0 0.0
2015-Jul-13 12:28N 36°53' E 122°26'0 0.0
2015-Jul-13 11:28N 36°53' E 122°26'0 0.0
2015-Jul-13 10:28N 36°53' E 122°26'0 0.0
2015-Jul-13 09:26N 36°53' E 122°26'2 2.3
2015-Jul-13 08:33N 36°52' E 122°29'7 6.7
2015-Jul-13 07:33N 36°49' E 122°36'2 1.9
2015-Jul-13 06:33N 36°48' E 122°34'1 1.4
2015-Jul-13 05:33N 36°48' E 122°32'1 0.8
2015-Jul-13 04:33N 36°48' E 122°31'0 0.5
2015-Jul-13 03:33N 36°48' E 122°30'0 0.4
2015-Jul-13 02:33N 36°48' E 122°31'5 5.1
2015-Jul-13 01:33N 36°43' E 122°30'1 0.0
2015-Jul-11 10:32N 36°42' E 122°29'7 7.1
2015-Jul-11 09:32N 36°49' E 122°30'5 5.2
2015-Jul-11 08:33N 36°53' E 122°26'0 0.1
2015-Jul-11 07:31N 36°53' E 122°26'0 0.0
2015-Jul-11 05:31N 36°53' E 122°26'0 0.0
2015-Jul-11 04:25N 36°53' E 122°26'0 0.0
2015-Jul-11 03:31N 36°53' E 122°26'0 0.0
2015-Jul-11 02:31N 36°53' E 122°26'0 0.0
2015-Jul-11 01:25N 36°53' E 122°26'0 0.0
2015-Jul-11 00:31N 36°53' E 122°26'0 0.0
2015-Jul-10 23:31N 36°53' E 122°26'0 0.0
2015-Jul-10 22:25N 36°53' E 122°26'0 0.0
2015-Jul-10 21:31N 36°53' E 122°26'0 0.0
2015-Jul-10 20:31N 36°53' E 122°26'0 0.0
2015-Jul-10 19:31N 36°53' E 122°26'0 0.0
2015-Jul-10 18:31N 36°53' E 122°26'0 0.0
2015-Jul-10 17:25N 36°53' E 122°26'0 0.0
2015-Jul-10 16:31N 36°53' E 122°26'0 0.0
2015-Jul-10 15:31N 36°53' E 122°26'0 0.0
2015-Jul-10 14:31N 36°53' E 122°26'0 0.0
2015-Jul-10 13:31N 36°53' E 122°26'0 0.0
2015-Jul-10 12:31N 36°53' E 122°26'0 0.0
2015-Jul-10 11:31N 36°53' E 122°26'0 0.0
2015-Jul-10 10:31N 36°53' E 122°26'0 0.0
2015-Jul-10 09:31N 36°53' E 122°26'0 0.0
2015-Jul-10 08:25N 36°53' E 122°26'0 0.0
2015-Jul-10 07:31N 36°53' E 122°26'0 0.0
2015-Jul-10 06:31N 36°53' E 122°26'0 0.0
2015-Jul-10 05:31N 36°53' E 122°26'0 0.0
2015-Jul-10 04:31N 36°53' E 122°26'0 0.0
2015-Jul-10 03:31N 36°53' E 122°26'0 0.0
2015-Jul-10 02:31N 36°53' E 122°26'0 0.0
2015-Jul-10 01:25N 36°53' E 122°26'0 0.0
2015-Jul-10 00:31N 36°53' E 122°26'0 0.0
2015-Jul-09 23:31N 36°53' E 122°26'0 0.0
2015-Jul-09 22:13N 36°53' E 122°26'0 0.0
2015-Jul-09 21:31N 36°53' E 122°26'0 0.0
2015-Jul-09 20:31N 36°53' E 122°26'0 0.0
2015-Jul-09 19:31N 36°53' E 122°26'0 0.0
2015-Jul-09 18:31N 36°53' E 122°26'0 0.0
2015-Jul-09 17:31N 36°53' E 122°26'0 0.0
2015-Jul-09 16:31N 36°53' E 122°26'0 0.0
2015-Jul-09 15:31N 36°53' E 122°26'0 0.0
2015-Jul-09 14:31N 36°53' E 122°26'0 0.0
2015-Jul-09 13:25N 36°53' E 122°26'0 0.0
2015-Jul-09 12:25N 36°53' E 122°26'0 0.0
2015-Jul-09 11:25N 36°53' E 122°26'0 0.0
2015-Jul-09 10:31N 36°53' E 122°26'0 0.0
2015-Jul-09 09:31N 36°53' E 122°26'0 0.0
2015-Jul-09 08:31N 36°53' E 122°26'0 0.0
2015-Jul-09 07:25N 36°53' E 122°26'0 0.0
2015-Jul-09 06:31N 36°53' E 122°26'0 0.0
2015-Jul-09 05:25N 36°53' E 122°26'0 0.0
2015-Jul-09 04:31N 36°53' E 122°26'0 0.0
2015-Jul-09 03:31N 36°53' E 122°26'0 0.0
2015-Jul-09 02:31N 36°53' E 122°26'0 0.0
2015-Jul-09 01:25N 36°53' E 122°26'0 0.0
2015-Jul-09 00:31N 36°53' E 122°26'0 0.0
2015-Jul-08 23:31N 36°53' E 122°26'0 0.0
2015-Jul-08 22:31N 36°53' E 122°26'0 0.0
2015-Jul-08 21:31N 36°53' E 122°26'0 0.0
2015-Jul-08 20:19N 36°53' E 122°26'0 0.0
2015-Jul-08 19:31N 36°53' E 122°26'0 0.0
2015-Jul-08 18:31N 36°53' E 122°26'0 0.0
2015-Jul-08 17:31N 36°53' E 122°26'0 0.0
2015-Jul-08 16:25N 36°53' E 122°26'0 0.0
2015-Jul-08 15:31N 36°53' E 122°26'0 0.0
2015-Jul-08 14:31N 36°53' E 122°26'0 0.0
2015-Jul-08 13:25N 36°53' E 122°26'0 0.0
2015-Jul-08 12:31N 36°53' E 122°26'0 0.0
2015-Jul-08 11:31N 36°53' E 122°26'0 0.0
2015-Jul-08 10:31N 36°53' E 122°26'0 0.0
2015-Jul-08 09:31N 36°53' E 122°26'0 0.0
2015-Jul-08 08:31N 36°53' E 122°26'0 0.0
2015-Jul-08 07:19N 36°53' E 122°26'0 0.0
2015-Jul-08 06:25N 36°53' E 122°26'0 0.0
2015-Jul-08 05:31N 36°53' E 122°26'0 0.0
2015-Jul-08 04:31N 36°53' E 122°26'0 0.0
2015-Jul-08 03:31N 36°53' E 122°26'0 0.0
2015-Jul-08 02:25N 36°53' E 122°26'0 0.0
2015-Jul-08 01:25N 36°53' E 122°26'0 0.0
2015-Jul-08 00:31N 36°53' E 122°26'0 0.0
2015-Jul-07 23:31N 36°53' E 122°26'0 0.0
2015-Jul-07 22:25N 36°53' E 122°26'0 0.0
2015-Jul-07 21:25N 36°53' E 122°26'0 0.0
2015-Jul-07 20:31N 36°53' E 122°26'0 0.0
2015-Jul-07 16:13N 36°53' E 122°26'0 0.0
2015-Jul-07 15:31N 36°53' E 122°26'0 0.0
2015-Jul-07 14:31N 36°53' E 122°26'0 0.0
2015-Jul-07 13:31N 36°53' E 122°26'0 0.0
2015-Jul-07 12:31N 36°53' E 122°26'0 0.0
2015-Jul-07 11:25N 36°53' E 122°26'0 0.0
2015-Jul-07 10:19N 36°53' E 122°26'0 0.0
2015-Jul-07 09:31N 36°53' E 122°26'0 0.0
2015-Jul-07 08:31N 36°53' E 122°26'0 0.0
2015-Jul-07 07:13N 36°53' E 122°26'0 0.0
2015-Jul-07 06:13N 36°53' E 122°26'0 0.0
2015-Jul-07 05:31N 36°53' E 122°26'0 0.0
2015-Jul-07 04:19N 36°53' E 122°26'0 0.0
2015-Jul-07 03:31N 36°53' E 122°26'0 0.0
2015-Jul-07 02:25N 36°53' E 122°26'0 0.0
2015-Jul-07 01:19N 36°53' E 122°26'0 0.0
2015-Jul-07 00:25N 36°53' E 122°26'0 0.0
2015-Jul-06 23:13N 36°53' E 122°26'0 0.0
2015-Jul-06 18:07N 36°53' E 122°26'0 0.0
2015-Jul-06 17:31N 36°53' E 122°26'0 0.0
2015-Jul-06 16:19N 36°53' E 122°26'0 0.0
2015-Jul-06 15:31N 36°53' E 122°26'0 0.0
2015-Jul-06 14:25N 36°53' E 122°26'0 0.0
2015-Jul-06 13:25N 36°53' E 122°26'0 0.0
2015-Jul-06 12:31N 36°53' E 122°26'0 0.0
2015-Jul-06 11:31N 36°53' E 122°26'0 0.2
2015-Jul-06 10:31N 36°53' E 122°26'0 0.0
2015-Jul-06 09:31N 36°53' E 122°26'0 0.0
2015-Jul-06 08:31N 36°53' E 122°26'0 0.0
2015-Jul-06 07:32N 36°53' E 122°26'0 0.0
2015-Jul-06 06:31N 36°53' E 122°26'0 0.0
2015-Jul-06 05:31N 36°53' E 122°26'0 0.0
2015-Jul-06 04:31N 36°53' E 122°26'0 0.0
2015-Jul-06 03:31N 36°53' E 122°26'0 0.0
2015-Jul-06 02:31N 36°53' E 122°26'0 0.0
2015-Jul-06 01:31N 36°53' E 122°26'0 0.0
2015-Jul-06 00:31N 36°53' E 122°26'0 0.0
2015-Jul-05 23:31N 36°53' E 122°26'0 0.0
2015-Jul-05 22:31N 36°53' E 122°26'0 0.0
2015-Jul-05 21:31N 36°53' E 122°26'0 0.0
2015-Jul-05 20:31N 36°53' E 122°26'0 0.0
2015-Jul-05 19:25N 36°53' E 122°26'0 0.0
2015-Jul-05 18:31N 36°53' E 122°26'0 0.0
2015-Jul-05 17:19N 36°53' E 122°26'0 0.0
2015-Jul-05 16:07N 36°53' E 122°26'0 0.0
2015-Jul-05 15:31N 36°53' E 122°26'0 0.0
2015-Jul-05 14:31N 36°53' E 122°26'0 0.0
2015-Jul-05 13:25N 36°53' E 122°26'0 0.0
2015-Jul-05 12:31N 36°53' E 122°26'0 0.0
2015-Jul-05 11:31N 36°53' E 122°26'0 0.0
2015-Jul-05 10:19N 36°53' E 122°26'0 0.0
2015-Jul-05 09:25N 36°53' E 122°26'0 0.0
2015-Jul-05 08:31N 36°53' E 122°26'0 0.0
2015-Jul-05 07:31N 36°53' E 122°26'0 0.0
2015-Jul-05 06:31N 36°53' E 122°26'  

Dump ship's entire track history